createdAt,value
2023-05-11T00:00:00.458Z,82.79
2023-05-11T00:02:26.922Z,82.89
2023-05-11T00:04:53.284Z,82.80
2023-05-11T00:07:19.646Z,82.90
2023-05-11T00:09:46.030Z,82.86
2023-05-11T00:12:12.415Z,82.88
2023-05-11T00:14:38.786Z,82.87
2023-05-11T00:17:05.219Z,82.79
2023-05-11T00:19:31.622Z,82.76
2023-05-11T00:21:58.072Z,82.65
2023-05-11T00:24:24.435Z,82.60
2023-05-11T00:26:50.859Z,82.55
2023-05-11T00:29:17.231Z,82.14
2023-05-11T00:31:43.644Z,82.20
2023-05-11T00:34:10.029Z,82.04
2023-05-11T00:36:36.441Z,81.94
2023-05-11T00:39:02.801Z,82.16
2023-05-11T00:41:29.252Z,82.04
2023-05-11T00:43:55.652Z,81.60
2023-05-11T00:46:22.077Z,81.45
2023-05-11T00:48:48.470Z,81.39
2023-05-11T00:51:14.881Z,81.34
2023-05-11T00:53:41.256Z,81.08
2023-05-11T00:56:07.701Z,80.92
2023-05-11T00:58:34.103Z,80.69
2023-05-11T01:01:00.492Z,80.70
2023-05-11T01:03:26.934Z,80.60
2023-05-11T01:05:53.296Z,80.49
2023-05-11T01:08:19.702Z,80.21
2023-05-11T01:10:46.155Z,79.93
2023-05-11T01:13:12.559Z,79.66
2023-05-11T01:15:38.980Z,79.64
2023-05-11T01:18:05.453Z,79.50
2023-05-11T01:20:31.796Z,79.25
2023-05-11T01:22:58.215Z,79.34
2023-05-11T01:25:24.632Z,79.45
2023-05-11T01:27:50.992Z,79.40
2023-05-11T01:30:17.598Z,79.56
2023-05-11T01:32:43.829Z,79.43
2023-05-11T01:35:10.213Z,79.58
2023-05-11T01:37:36.568Z,79.60
2023-05-11T01:40:03.024Z,79.73
2023-05-11T01:42:29.390Z,79.95
2023-05-11T01:44:55.762Z,79.94
2023-05-11T01:47:22.219Z,80.08
2023-05-11T01:49:48.646Z,80.10
2023-05-11T01:52:15.020Z,80.13
2023-05-11T01:54:41.448Z,80.25
2023-05-11T01:57:07.820Z,80.45
2023-05-11T01:59:34.244Z,80.59
2023-05-11T02:02:00.650Z,80.84
2023-05-11T02:04:27.019Z,80.98
2023-05-11T02:06:53.405Z,81.04
2023-05-11T02:09:19.811Z,80.92
2023-05-11T02:11:46.214Z,80.89
2023-05-11T02:14:12.597Z,80.98
2023-05-11T02:16:39.007Z,80.94
2023-05-11T02:19:05.462Z,81.00
2023-05-11T02:21:31.868Z,81.09
2023-05-11T02:24:01.065Z,81.13
2023-05-11T02:26:27.523Z,81.36
2023-05-11T02:28:53.893Z,81.48
2023-05-11T02:31:20.410Z,81.57
2023-05-11T02:33:46.684Z,81.51
2023-05-11T02:36:13.069Z,81.59
2023-05-11T02:38:39.467Z,81.60
2023-05-11T02:41:05.908Z,81.63
2023-05-11T02:43:32.255Z,81.82
2023-05-11T02:45:58.648Z,81.77
2023-05-11T02:48:25.008Z,81.87
2023-05-11T02:50:51.478Z,82.01
2023-05-11T02:53:17.866Z,82.04
2023-05-11T02:55:44.269Z,82.31
2023-05-11T02:58:10.724Z,82.54
2023-05-11T03:00:37.152Z,82.73
2023-05-11T03:03:03.664Z,82.98
2023-05-11T03:05:29.899Z,83.24
2023-05-11T03:07:56.302Z,83.33
2023-05-11T03:10:22.709Z,83.51
2023-05-11T03:12:49.119Z,83.73
2023-05-11T03:15:15.492Z,83.78
2023-05-11T03:17:41.927Z,83.89
2023-05-11T03:20:08.309Z,83.90
2023-05-11T03:22:34.663Z,83.90
2023-05-11T03:25:01.046Z,84.00
2023-05-11T03:27:27.514Z,84.15
2023-05-11T03:29:53.896Z,84.18
2023-05-11T03:32:20.400Z,84.39
2023-05-11T03:34:46.779Z,84.61
2023-05-11T03:37:13.130Z,84.80
2023-05-11T03:39:39.498Z,84.92
2023-05-11T03:42:05.883Z,85.03
2023-05-11T03:44:32.303Z,85.20
2023-05-11T03:46:58.845Z,85.29
2023-05-11T03:49:25.281Z,85.49
2023-05-11T03:51:51.645Z,85.67
2023-05-11T03:54:18.059Z,85.99
2023-05-11T03:56:44.481Z,86.15
2023-05-11T03:59:10.846Z,86.26
2023-05-11T04:01:37.224Z,86.35
2023-05-11T04:04:03.791Z,86.45
2023-05-11T04:06:30.008Z,86.45
2023-05-11T04:08:56.432Z,86.63
2023-05-11T04:11:22.812Z,86.78
2023-05-11T04:13:49.237Z,87.01
2023-05-11T04:16:15.661Z,87.31
2023-05-11T04:18:42.161Z,87.48
2023-05-11T04:21:08.505Z,87.61
2023-05-11T04:23:34.926Z,87.75
2023-05-11T04:26:01.333Z,87.82
2023-05-11T04:28:27.929Z,88.04
2023-05-11T04:30:54.266Z,88.31
2023-05-11T04:33:20.662Z,88.46
2023-05-11T04:35:47.093Z,88.71
2023-05-11T04:38:13.457Z,88.84
2023-05-11T04:40:40.969Z,88.82
2023-05-11T04:43:07.424Z,88.59
2023-05-11T04:45:33.810Z,88.93
2023-05-11T04:48:00.457Z,89.33
2023-05-11T04:50:26.869Z,89.16
2023-05-11T04:52:53.262Z,89.29
2023-05-11T04:55:19.693Z,89.37
2023-05-11T04:57:46.164Z,89.40
2023-05-11T05:00:12.577Z,89.22
2023-05-11T05:02:38.993Z,88.97
2023-05-11T05:05:05.389Z,88.66
2023-05-11T05:07:31.793Z,88.61
2023-05-11T05:09:58.190Z,88.74
2023-05-11T05:12:24.542Z,88.47
2023-05-11T05:14:50.979Z,88.54
2023-05-11T05:17:17.356Z,88.60
2023-05-11T05:19:43.878Z,88.72
2023-05-11T05:22:10.235Z,88.74
2023-05-11T05:24:36.651Z,88.76
2023-05-11T05:27:03.016Z,88.88
2023-05-11T05:29:29.615Z,88.86
2023-05-11T05:31:55.975Z,88.77
2023-05-11T05:34:22.433Z,88.47
2023-05-11T05:36:48.798Z,88.17
2023-05-11T05:39:15.181Z,88.18
2023-05-11T05:41:41.602Z,87.86
2023-05-11T05:44:08.125Z,87.87
2023-05-11T05:46:34.580Z,87.76
2023-05-11T05:49:00.910Z,87.75
2023-05-11T05:51:27.294Z,88.09
2023-05-11T05:53:53.732Z,88.20
2023-05-11T05:56:20.126Z,88.11
2023-05-11T05:58:46.545Z,87.95
2023-05-11T06:01:12.950Z,87.36
2023-05-11T06:03:39.467Z,87.22
2023-05-11T06:06:05.771Z,87.32
2023-05-11T06:08:32.184Z,87.56
2023-05-11T06:10:58.563Z,87.62
2023-05-11T06:13:25.044Z,88.41
2023-05-11T06:15:51.521Z,88.39
2023-05-11T06:18:17.866Z,87.94
2023-05-11T06:20:44.232Z,88.08
2023-05-11T06:23:10.666Z,87.94
2023-05-11T06:25:37.080Z,87.59
2023-05-11T06:28:03.450Z,87.51
2023-05-11T06:30:29.876Z,87.32
2023-05-11T06:32:56.306Z,87.21
2023-05-11T06:35:22.700Z,87.16
2023-05-11T06:37:49.099Z,86.74
2023-05-11T06:40:15.767Z,86.38
2023-05-11T06:42:41.843Z,86.23
2023-05-11T06:45:08.332Z,85.67
2023-05-11T06:47:34.673Z,85.50
2023-05-11T06:50:01.084Z,84.79
2023-05-11T06:52:27.433Z,84.46
2023-05-11T06:54:53.807Z,84.72
2023-05-11T06:57:20.249Z,84.24
2023-05-11T06:59:46.688Z,83.99
2023-05-11T07:02:13.063Z,83.65
2023-05-11T07:04:39.592Z,82.48
2023-05-11T07:07:05.983Z,82.43
2023-05-11T07:09:32.414Z,81.87
2023-05-11T07:11:58.836Z,81.66
2023-05-11T07:14:25.274Z,81.21
2023-05-11T07:16:51.998Z,80.93
2023-05-11T07:19:18.349Z,80.79
2023-05-11T07:21:44.754Z,79.94
2023-05-11T07:24:11.283Z,79.34
2023-05-11T07:26:37.689Z,77.51
2023-05-11T07:29:04.071Z,76.79
2023-05-11T07:31:30.516Z,76.13
2023-05-11T07:33:56.870Z,75.29
2023-05-11T07:36:23.292Z,74.85
2023-05-11T07:38:49.678Z,74.70
2023-05-11T07:41:16.089Z,74.70
2023-05-11T07:43:42.536Z,73.87
2023-05-11T07:46:09.042Z,73.38
2023-05-11T07:48:35.415Z,73.13
2023-05-11T07:51:01.821Z,72.29
2023-05-11T07:55:54.384Z,71.35
2023-05-11T07:58:20.896Z,70.69
2023-05-11T08:00:47.276Z,69.73
2023-05-11T08:03:13.733Z,69.37
2023-05-11T08:05:40.120Z,69.15
2023-05-11T08:08:06.491Z,69.53
2023-05-11T08:10:32.968Z,69.23
2023-05-11T08:12:59.337Z,69.51
2023-05-11T08:15:25.817Z,68.94
2023-05-11T08:17:57.109Z,68.37
2023-05-11T08:20:21.077Z,67.26
2023-05-11T08:22:47.551Z,69.11
2023-05-11T08:25:13.954Z,68.12
2023-05-11T08:27:40.366Z,67.17
2023-05-11T08:30:06.750Z,67.75
2023-05-11T08:32:43.330Z,67.93
2023-05-11T08:35:00.886Z,67.57
2023-05-11T08:37:27.036Z,67.31
2023-05-11T08:39:53.419Z,67.91
2023-05-11T08:42:19.818Z,68.05
2023-05-11T08:44:46.224Z,69.26
2023-05-11T08:49:39.019Z,68.09
2023-05-11T08:52:07.596Z,67.88
2023-05-11T08:54:31.940Z,67.56
2023-05-11T08:56:58.313Z,67.65
2023-05-11T08:59:24.675Z,67.47
2023-05-11T09:01:51.274Z,68.14
2023-05-11T09:04:17.654Z,69.26
2023-05-11T09:06:44.090Z,69.46
2023-05-11T09:09:10.549Z,69.21
2023-05-11T09:11:38.262Z,69.33
2023-05-11T09:14:04.680Z,69.76
2023-05-11T09:16:37.180Z,68.05
2023-05-11T09:18:57.678Z,67.31
2023-05-11T09:21:23.964Z,67.76
2023-05-11T09:23:50.363Z,67.17
2023-05-11T09:26:16.798Z,67.78
2023-05-11T09:28:46.167Z,67.21
2023-05-11T09:31:09.579Z,67.97
2023-05-11T09:33:35.895Z,67.44
2023-05-11T09:36:02.306Z,68.37
2023-05-11T09:38:28.720Z,68.83
2023-05-11T09:40:55.123Z,69.07
2023-05-11T09:43:21.486Z,69.41
2023-05-11T09:45:47.910Z,68.82
2023-05-11T09:48:14.288Z,70.49
2023-05-11T09:50:40.701Z,69.99
2023-05-11T09:53:07.114Z,67.47
2023-05-11T09:55:33.647Z,66.49
2023-05-11T09:58:00.058Z,65.15
2023-05-11T10:00:26.485Z,66.16
2023-05-11T10:02:52.957Z,68.20
2023-05-11T10:05:19.650Z,67.53
2023-05-11T10:07:45.847Z,64.95
2023-05-11T10:10:12.253Z,64.16
2023-05-11T10:12:38.751Z,64.57
2023-05-11T10:15:05.096Z,65.95
2023-05-11T10:17:31.523Z,66.98
2023-05-11T10:19:57.863Z,65.64
2023-05-11T10:22:24.291Z,66.83
2023-05-11T10:24:50.648Z,66.46
2023-05-11T10:27:17.050Z,65.71
2023-05-11T10:29:43.498Z,66.79
2023-05-11T10:32:09.897Z,66.53
2023-05-11T10:34:37.418Z,66.52
2023-05-11T10:37:03.825Z,63.96
2023-05-11T10:39:30.218Z,63.17
2023-05-11T10:41:56.620Z,62.41
2023-05-11T10:44:23.036Z,62.53
2023-05-11T10:46:49.400Z,62.50
2023-05-11T10:49:15.789Z,63.29
2023-05-11T10:51:42.210Z,62.87
2023-05-11T10:54:08.617Z,62.14
2023-05-11T10:56:37.038Z,64.27
2023-05-11T10:59:03.498Z,63.68
2023-05-11T11:01:29.974Z,64.80
2023-05-11T11:03:56.285Z,64.10
2023-05-11T11:06:22.735Z,63.58
2023-05-11T11:08:49.152Z,65.15
2023-05-11T11:11:15.564Z,63.72
2023-05-11T11:13:42.086Z,64.46
2023-05-11T11:16:08.557Z,63.50
2023-05-11T11:18:35.172Z,63.79
2023-05-11T11:21:01.453Z,63.19
2023-05-11T11:23:27.868Z,63.92
2023-05-11T11:25:54.285Z,64.29
2023-05-11T11:28:20.641Z,63.66
2023-05-11T11:30:47.177Z,63.34
2023-05-11T11:33:13.610Z,63.23
2023-05-11T11:35:40.234Z,61.21
2023-05-11T11:38:06.488Z,61.63
2023-05-11T11:40:42.878Z,60.80
2023-05-11T11:43:00.950Z,60.95
2023-05-11T11:45:25.657Z,60.92
2023-05-11T11:47:52.090Z,61.42
2023-05-11T11:50:18.472Z,61.87
2023-05-11T11:52:44.876Z,63.78
2023-05-11T11:55:11.256Z,64.21
2023-05-11T11:57:37.636Z,63.41
2023-05-11T12:00:04.014Z,62.10
2023-05-11T12:02:30.500Z,63.44
2023-05-11T12:04:59.445Z,63.74
2023-05-11T12:07:25.781Z,63.10
2023-05-11T12:09:52.216Z,64.78
2023-05-11T12:12:18.616Z,64.80
2023-05-11T12:14:45.004Z,65.33
2023-05-11T12:17:11.402Z,64.57
2023-05-11T12:19:37.830Z,63.35
2023-05-11T12:22:04.240Z,62.94
2023-05-11T12:24:30.659Z,63.33
2023-05-11T12:26:58.229Z,65.33
2023-05-11T12:29:24.670Z,65.14
2023-05-11T12:31:51.097Z,64.17
2023-05-11T12:34:17.436Z,64.64
2023-05-11T12:36:43.845Z,64.21
2023-05-11T12:39:10.277Z,64.33
2023-05-11T12:41:36.649Z,64.87
2023-05-11T12:44:03.062Z,64.24
2023-05-11T12:46:29.555Z,62.41
2023-05-11T12:48:56.859Z,64.23
2023-05-11T12:51:22.291Z,64.29
2023-05-11T12:53:48.729Z,63.55
2023-05-11T12:56:15.103Z,63.69
2023-05-11T12:58:41.476Z,64.45
2023-05-11T13:01:07.854Z,65.01
2023-05-11T13:03:34.383Z,64.41
2023-05-11T13:06:02.558Z,64.92
2023-05-11T13:08:27.161Z,65.16
2023-05-11T13:10:53.567Z,64.41
2023-05-11T13:13:20.078Z,64.83
2023-05-11T13:15:46.527Z,65.30
2023-05-11T13:18:13.881Z,65.66
2023-05-11T13:20:39.383Z,65.54
2023-05-11T13:23:05.808Z,65.31
2023-05-11T13:25:32.170Z,65.34
2023-05-11T13:27:58.576Z,65.70
2023-05-11T13:30:25.020Z,65.79
2023-05-11T13:32:51.491Z,64.85
2023-05-11T13:35:17.951Z,65.79
2023-05-11T13:37:44.254Z,65.43
2023-05-11T13:40:10.687Z,65.27
2023-05-11T13:42:37.150Z,66.00
2023-05-11T13:45:03.568Z,65.30
2023-05-11T13:47:30.032Z,65.56
2023-05-11T13:49:56.867Z,65.26
2023-05-11T13:52:23.459Z,65.32
2023-05-11T13:54:49.828Z,65.57
2023-05-11T13:57:16.265Z,65.63
2023-05-11T13:59:42.652Z,65.75
2023-05-11T14:02:09.166Z,65.96
2023-05-11T14:04:35.479Z,65.79
2023-05-11T14:07:01.905Z,66.58
2023-05-11T14:09:28.310Z,66.73
2023-05-11T14:11:54.742Z,66.41
2023-05-11T14:14:21.198Z,66.43
2023-05-11T14:16:47.639Z,66.77
2023-05-11T14:19:14.137Z,66.27
2023-05-11T14:21:40.861Z,65.99
2023-05-11T14:24:12.141Z,66.63
2023-05-11T14:26:33.666Z,66.49
2023-05-11T14:29:00.085Z,66.53
2023-05-11T14:31:26.588Z,66.51
2023-05-11T14:33:52.877Z,66.84
2023-05-11T14:36:19.273Z,66.69
2023-05-11T14:38:45.679Z,66.19
2023-05-11T14:41:12.070Z,66.80
2023-05-11T14:43:41.362Z,66.65
2023-05-11T14:46:07.973Z,66.12
2023-05-11T14:48:34.268Z,66.28
2023-05-11T14:51:00.704Z,66.74
2023-05-11T14:53:27.101Z,66.30
2023-05-11T14:55:53.521Z,66.67
2023-05-11T14:58:19.880Z,66.61
2023-05-11T15:00:46.333Z,66.96
2023-05-11T15:03:12.816Z,66.91
2023-05-11T15:05:39.116Z,66.58
2023-05-11T15:08:12.737Z,66.74
2023-05-11T15:10:32.163Z,67.06
2023-05-11T15:12:58.563Z,66.75
2023-05-11T15:15:24.992Z,66.36
2023-05-11T15:17:51.405Z,66.52
2023-05-11T15:20:17.908Z,66.66
2023-05-11T15:22:44.290Z,66.96
2023-05-11T15:25:10.712Z,67.23
2023-05-11T15:27:37.219Z,67.31
2023-05-11T15:30:03.619Z,66.93
2023-05-11T15:32:30.060Z,67.28
2023-05-11T15:34:59.650Z,67.62
2023-05-11T15:37:22.818Z,67.54
2023-05-11T15:39:49.216Z,67.44
2023-05-11T15:42:15.568Z,67.30
2023-05-11T15:44:41.982Z,67.83
2023-05-11T15:47:08.375Z,67.75
2023-05-11T15:49:34.800Z,67.68
2023-05-11T15:52:01.457Z,67.94
2023-05-11T15:54:28.135Z,67.40
2023-05-11T15:56:54.532Z,67.74
2023-05-11T15:59:20.903Z,67.92
2023-05-11T16:01:47.325Z,67.95
2023-05-11T16:04:13.746Z,68.35
2023-05-11T16:06:41.161Z,68.25
2023-05-11T16:09:07.549Z,68.09
2023-05-11T16:11:33.972Z,68.32
2023-05-11T16:14:00.339Z,68.54
2023-05-11T16:16:26.767Z,68.46
2023-05-11T16:18:54.412Z,68.41
2023-05-11T16:21:20.803Z,68.10
2023-05-11T16:23:47.396Z,68.31
2023-05-11T16:26:13.808Z,68.07
2023-05-11T16:28:40.220Z,68.60
2023-05-11T16:31:06.699Z,68.59
2023-05-11T16:33:33.077Z,68.85
2023-05-11T16:35:59.434Z,69.07
2023-05-11T16:38:25.857Z,68.65
2023-05-11T16:40:52.257Z,68.26
2023-05-11T16:43:18.710Z,68.79
2023-05-11T16:45:45.090Z,68.71
2023-05-11T16:48:11.536Z,68.74
2023-05-11T16:50:37.925Z,69.12
2023-05-11T16:53:04.281Z,69.28
2023-05-11T16:55:30.904Z,68.99
2023-05-11T16:57:57.350Z,69.16
2023-05-11T17:00:23.791Z,69.46
2023-05-11T17:02:50.231Z,69.54
2023-05-11T17:05:16.515Z,69.44
2023-05-11T17:07:43.920Z,69.48
2023-05-11T17:10:10.400Z,69.37
2023-05-11T17:12:36.773Z,69.49
2023-05-11T17:15:03.181Z,69.46
2023-05-11T17:17:29.644Z,69.54
2023-05-11T17:19:56.067Z,69.69
2023-05-11T17:22:22.413Z,69.62
2023-05-11T17:24:51.231Z,69.69
2023-05-11T17:27:17.637Z,69.91
2023-05-11T17:29:44.189Z,70.19
2023-05-11T17:32:10.774Z,69.78
2023-05-11T17:34:37.174Z,70.11
2023-05-11T17:37:04.015Z,69.88
2023-05-11T17:39:30.398Z,69.79
2023-05-11T17:42:01.237Z,69.63
2023-05-11T17:44:28.625Z,69.79
2023-05-11T17:46:55.109Z,70.08
2023-05-11T17:49:21.537Z,69.67
2023-05-11T17:51:48.909Z,69.92
2023-05-11T17:54:15.323Z,69.87
2023-05-11T17:56:42.732Z,69.87
2023-05-11T17:59:10.270Z,70.31
2023-05-11T18:01:36.773Z,69.90
2023-05-11T18:04:03.315Z,70.02
2023-05-11T18:06:30.103Z,70.40
2023-05-11T18:08:56.600Z,70.13
2023-05-11T18:11:25.382Z,70.15
2023-05-11T18:13:51.918Z,70.14
2023-05-11T18:16:18.297Z,70.21
2023-05-11T18:18:45.949Z,70.43
2023-05-11T18:21:12.641Z,70.56
2023-05-11T18:23:39.421Z,70.86
2023-05-11T18:26:07.044Z,70.28
2023-05-11T18:28:34.976Z,70.25
2023-05-11T18:31:03.945Z,70.65
2023-05-11T18:33:30.410Z,70.88
2023-05-11T18:35:56.845Z,70.69
2023-05-11T18:38:23.281Z,70.88
2023-05-11T18:40:50.918Z,70.79
2023-05-11T18:43:20.008Z,70.15
2023-05-11T18:45:47.060Z,69.94
2023-05-11T18:48:21.132Z,70.01
2023-05-11T18:50:47.590Z,69.82
2023-05-11T18:53:14.590Z,69.93
2023-05-11T18:55:52.031Z,70.07
2023-05-11T18:58:07.775Z,70.42
2023-05-11T19:00:34.233Z,70.69
2023-05-11T19:03:00.822Z,70.87
2023-05-11T19:05:27.070Z,71.03
2023-05-11T19:07:53.910Z,71.60
2023-05-11T19:10:20.475Z,71.83
2023-05-11T19:12:48.866Z,72.22
2023-05-11T19:15:15.278Z,72.45
2023-05-11T19:17:41.810Z,72.56
2023-05-11T19:20:08.169Z,72.76
2023-05-11T19:22:34.868Z,72.92
2023-05-11T19:25:01.709Z,73.03
2023-05-11T19:27:28.511Z,73.20
2023-05-11T19:29:55.081Z,73.29
2023-05-11T19:32:21.518Z,73.51
2023-05-11T19:34:47.917Z,73.62
2023-05-11T19:37:14.384Z,73.89
2023-05-11T19:39:40.855Z,74.02
2023-05-11T19:42:07.250Z,73.99
2023-05-11T19:44:33.694Z,73.98
2023-05-11T19:47:00.127Z,74.14
2023-05-11T19:49:26.484Z,74.44
2023-05-11T19:51:52.960Z,74.58
2023-05-11T19:54:19.513Z,74.51
2023-05-11T19:56:45.926Z,74.81
2023-05-11T19:59:12.314Z,74.95
2023-05-11T20:01:38.745Z,75.00
2023-05-11T20:04:05.130Z,75.26
2023-05-11T20:06:32.203Z,75.25
2023-05-11T20:08:58.580Z,75.36
2023-05-11T20:11:24.953Z,75.52
2023-05-11T20:13:51.401Z,75.66
2023-05-11T20:16:18.000Z,75.80
2023-05-11T20:18:44.450Z,75.90
2023-05-11T20:21:10.757Z,75.83
2023-05-11T20:23:37.692Z,76.00
2023-05-11T20:26:05.691Z,76.04
2023-05-11T20:28:32.107Z,76.00
2023-05-11T20:30:58.527Z,76.04
2023-05-11T20:35:53.157Z,75.93
2023-05-11T20:38:17.750Z,75.80
2023-05-11T20:40:44.158Z,75.76
2023-05-11T20:43:11.087Z,75.79
2023-05-11T20:45:36.985Z,75.93
2023-05-11T20:48:03.520Z,76.15
2023-05-11T20:50:29.900Z,76.14
2023-05-11T20:52:56.722Z,76.10
2023-05-11T20:55:23.183Z,75.87
2023-05-11T20:57:49.610Z,75.93
2023-05-11T21:00:16.096Z,75.97
2023-05-11T21:02:42.491Z,75.80
2023-05-11T21:05:08.787Z,75.77
2023-05-11T21:07:35.199Z,75.87
2023-05-11T21:10:01.621Z,75.94
2023-05-11T21:12:27.994Z,75.97
2023-05-11T21:14:56.312Z,75.85
2023-05-11T21:17:20.760Z,75.80
2023-05-11T21:19:47.149Z,75.62
2023-05-11T21:22:13.563Z,75.50
2023-05-11T21:24:39.933Z,75.48
2023-05-11T21:27:06.354Z,75.20
2023-05-11T21:29:32.740Z,75.14
2023-05-11T21:31:59.159Z,75.22
2023-05-11T21:34:25.569Z,75.15
2023-05-11T21:36:51.947Z,75.03
2023-05-11T21:39:18.386Z,74.95
2023-05-11T21:41:44.763Z,75.09
2023-05-11T21:44:11.246Z,75.08
2023-05-11T21:46:37.778Z,75.25
2023-05-11T21:49:04.085Z,75.37
2023-05-11T21:51:30.513Z,75.47
2023-05-11T21:53:56.910Z,75.47
2023-05-11T21:56:23.331Z,75.42
2023-05-11T21:58:49.723Z,75.30
2023-05-11T22:01:16.161Z,75.51
2023-05-11T22:03:42.616Z,75.58
2023-05-11T22:06:08.954Z,75.70
2023-05-11T22:08:36.322Z,75.86
2023-05-11T22:11:02.874Z,75.72
2023-05-11T22:13:29.288Z,75.94
2023-05-11T22:15:55.710Z,76.27
2023-05-11T22:18:22.106Z,76.57
2023-05-11T22:20:48.464Z,77.03
2023-05-11T22:23:15.685Z,77.12
2023-05-11T22:25:41.288Z,76.90
2023-05-11T22:28:07.758Z,77.40
2023-05-11T22:30:34.095Z,77.49
2023-05-11T22:33:00.552Z,77.28
2023-05-11T22:35:26.944Z,77.24
2023-05-11T22:37:53.257Z,77.43
2023-05-11T22:40:19.998Z,77.86
2023-05-11T22:42:46.030Z,77.65
2023-05-11T22:45:12.436Z,77.37
2023-05-11T22:47:38.917Z,77.34
2023-05-11T22:50:05.248Z,77.06
2023-05-11T22:52:31.642Z,76.55
2023-05-11T22:54:58.091Z,76.69
2023-05-11T22:57:24.424Z,76.42
2023-05-11T22:59:50.843Z,76.28
2023-05-11T23:02:17.349Z,76.11
2023-05-11T23:04:43.721Z,75.90
2023-05-11T23:07:10.084Z,76.18
2023-05-11T23:09:36.502Z,76.29
2023-05-11T23:12:02.868Z,76.18
2023-05-11T23:14:29.308Z,76.30
2023-05-11T23:16:55.662Z,76.65
2023-05-11T23:19:22.100Z,76.58
2023-05-11T23:21:48.480Z,76.63
2023-05-11T23:24:14.898Z,76.42
2023-05-11T23:26:41.314Z,76.42
2023-05-11T23:29:07.781Z,76.52
2023-05-11T23:31:34.243Z,76.55
2023-05-11T23:34:00.499Z,76.79
2023-05-11T23:36:26.883Z,76.91
2023-05-11T23:38:53.269Z,76.88
2023-05-11T23:41:19.642Z,76.97
2023-05-11T23:43:46.042Z,76.89
2023-05-11T23:46:12.452Z,76.85
2023-05-11T23:48:38.910Z,76.83
2023-05-11T23:51:05.317Z,76.82
2023-05-11T23:53:31.774Z,77.03
2023-05-11T23:55:58.222Z,77.24
2023-05-11T23:58:24.614Z,77.18
